createdAt,value
2019-02-08T00:01:19.848Z,100459.43
2019-02-08T00:03:46.916Z,100452.92
2019-02-08T00:06:13.893Z,100450.28
2019-02-08T00:08:40.900Z,100459.47
2019-02-08T00:11:07.887Z,100460.94
2019-02-08T00:13:34.801Z,100473.86
2019-02-08T00:16:01.845Z,100470.69
2019-02-08T00:18:28.750Z,100466.33
2019-02-08T00:20:55.711Z,100465.89
2019-02-08T00:23:27.194Z,100468.84
2019-02-08T00:25:51.982Z,100470.27
2019-02-08T00:28:18.922Z,100467.14
2019-02-08T00:30:45.921Z,100473.01
2019-02-08T00:33:12.855Z,100471.84
2019-02-08T00:35:39.788Z,100468.08
2019-02-08T00:38:06.737Z,100465.48
2019-02-08T00:40:33.722Z,100464.63
2019-02-08T00:43:00.653Z,100462.92
2019-02-08T00:45:27.638Z,100467.72
2019-02-08T00:47:54.574Z,100465.98
2019-02-08T00:50:21.674Z,100473.45
2019-02-08T00:52:48.750Z,100463.95
2019-02-08T00:55:16.767Z,100467.28
2019-02-08T00:57:43.992Z,100471.53
2019-02-08T01:00:11.978Z,100471.09
2019-02-08T01:02:39.631Z,100478.20
2019-02-08T01:05:08.197Z,100475.56
2019-02-08T01:07:35.202Z,100478.20
2019-02-08T01:10:03.198Z,100476.46
2019-02-08T01:12:30.192Z,100472.03
2019-02-08T01:14:57.209Z,100469.64
2019-02-08T01:17:24.213Z,100478.78
2019-02-08T01:19:51.648Z,100482.20
2019-02-08T01:22:18.636Z,100471.55
2019-02-08T01:24:45.551Z,100483.49
2019-02-08T01:27:12.502Z,100487.44
2019-02-08T01:29:39.414Z,100489.62
2019-02-08T01:32:06.375Z,100486.62
2019-02-08T01:34:33.318Z,100484.52
2019-02-08T01:37:00.283Z,100487.11
2019-02-08T01:39:27.214Z,100482.00
2019-02-08T01:41:54.156Z,100487.42
2019-02-08T01:44:21.074Z,100487.75
2019-02-08T01:46:48.026Z,100496.00
2019-02-08T01:49:14.958Z,100494.25
2019-02-08T01:51:41.919Z,100501.16
2019-02-08T01:54:08.827Z,100503.46
2019-02-08T01:56:35.799Z,100494.29
2019-02-08T01:59:03.073Z,100501.94
2019-02-08T02:01:30.024Z,100504.50
2019-02-08T02:03:56.946Z,100505.45
2019-02-08T02:06:23.891Z,100509.32
2019-02-08T02:08:50.834Z,100503.75
2019-02-08T02:11:17.780Z,100504.13
2019-02-08T02:13:44.728Z,100507.09
2019-02-08T02:16:11.680Z,100510.96
2019-02-08T02:18:38.640Z,100510.03
2019-02-08T02:21:05.578Z,100507.73
2019-02-08T02:23:32.527Z,100508.48
2019-02-08T02:25:59.449Z,100502.46
2019-02-08T02:28:26.399Z,100500.27
2019-02-08T02:30:53.324Z,100508.95
2019-02-08T02:33:20.427Z,100507.21
2019-02-08T02:35:47.394Z,100502.79
2019-02-08T02:38:14.389Z,100507.62
2019-02-08T02:40:41.311Z,100513.67
2019-02-08T02:43:08.673Z,100508.52
2019-02-08T02:45:36.641Z,100514.94
2019-02-08T02:48:04.830Z,100513.92
2019-02-08T02:50:31.788Z,100517.83
2019-02-08T02:52:58.786Z,100515.19
2019-02-08T02:55:26.484Z,100516.61
2019-02-08T02:57:53.657Z,100525.19
2019-02-08T03:00:31.450Z,100517.38
2019-02-08T03:02:59.220Z,100520.39
2019-02-08T03:05:26.296Z,100510.92
2019-02-08T03:07:53.589Z,100514.73
2019-02-08T03:10:21.543Z,100511.17
2019-02-08T03:12:48.631Z,100504.17
2019-02-08T03:15:17.520Z,100504.38
2019-02-08T03:17:44.549Z,100512.67
2019-02-08T03:20:14.377Z,100507.02
2019-02-08T03:22:41.406Z,100516.61
2019-02-08T03:25:10.325Z,100513.32
2019-02-08T03:27:37.284Z,100507.52
2019-02-08T03:30:07.374Z,100506.02
2019-02-08T03:32:34.348Z,100512.52
2019-02-08T03:35:01.285Z,100499.30
2019-02-08T03:37:28.281Z,100499.91
2019-02-08T03:39:55.228Z,100509.06
2019-02-08T03:42:22.214Z,100505.16
2019-02-08T03:44:49.159Z,100509.50
2019-02-08T03:47:16.115Z,100508.69
2019-02-08T03:49:43.050Z,100514.70
2019-02-08T03:52:10.040Z,100504.18
2019-02-08T03:54:36.959Z,100499.02
2019-02-08T03:57:04.083Z,100497.30
2019-02-08T03:59:30.976Z,100497.67
2019-02-08T04:01:58.013Z,100500.28
2019-02-08T04:04:25.041Z,100495.16
2019-02-08T04:06:51.948Z,100489.11
2019-02-08T04:09:18.960Z,100488.25
2019-02-08T04:11:45.902Z,100482.15
2019-02-08T04:14:12.999Z,100472.20
2019-02-08T04:16:39.913Z,100480.13
2019-02-08T04:19:07.016Z,100480.00
2019-02-08T04:21:33.956Z,100473.01
2019-02-08T04:24:00.978Z,100478.17
2019-02-08T04:26:27.912Z,100476.55
2019-02-08T04:28:54.882Z,100480.77
2019-02-08T04:31:21.829Z,100484.67
2019-02-08T04:33:48.768Z,100475.08
2019-02-08T04:36:15.706Z,100474.07
2019-02-08T04:38:42.721Z,100482.56
2019-02-08T04:41:09.671Z,100477.04
2019-02-08T04:43:36.642Z,100489.06
2019-02-08T04:46:03.650Z,100473.50
2019-02-08T04:48:30.677Z,100479.02
2019-02-08T04:50:57.626Z,100392.72
2019-02-08T04:53:24.640Z,100479.19
2019-02-08T04:55:51.591Z,100480.53
2019-02-08T04:58:18.567Z,100483.58
2019-02-08T05:00:45.498Z,100487.36
2019-02-08T05:03:12.481Z,100476.55
2019-02-08T05:05:39.408Z,100480.77
2019-02-08T05:08:06.404Z,100480.86
2019-02-08T05:10:33.932Z,100473.78
2019-02-08T05:13:00.989Z,100466.72
2019-02-08T05:15:28.103Z,100334.05
2019-02-08T05:17:55.047Z,100476.67
2019-02-08T05:20:23.331Z,100467.94
2019-02-08T05:22:50.274Z,100476.50
2019-02-08T05:25:17.956Z,100464.94
2019-02-08T05:27:44.975Z,100451.64
2019-02-08T05:30:15.038Z,100450.34
2019-02-08T05:32:41.979Z,100453.31
2019-02-08T05:35:08.999Z,100452.53
2019-02-08T05:37:35.920Z,100450.10
2019-02-08T05:40:04.111Z,100442.75
2019-02-08T05:42:31.031Z,100445.64
2019-02-08T05:44:58.060Z,100444.02
2019-02-08T05:47:24.953Z,100447.37
2019-02-08T05:49:51.898Z,100441.78
2019-02-08T05:52:18.826Z,100449.53
2019-02-08T05:54:54.088Z,100445.95
2019-02-08T05:57:14.611Z,100453.06
2019-02-08T05:59:41.574Z,100444.82
2019-02-08T06:02:08.476Z,100441.73
2019-02-08T06:04:35.439Z,100442.14
2019-02-08T06:07:02.385Z,100442.22
2019-02-08T06:09:29.376Z,100443.04
2019-02-08T06:11:56.306Z,100441.56
2019-02-08T06:14:23.313Z,100438.73
2019-02-08T06:16:50.259Z,100437.80
2019-02-08T06:19:17.227Z,100432.63
2019-02-08T06:21:44.142Z,100435.40
2019-02-08T06:24:11.116Z,100431.02
2019-02-08T06:26:38.029Z,100432.63
2019-02-08T06:29:05.282Z,100426.79
2019-02-08T06:31:32.244Z,100431.17
2019-02-08T06:33:59.206Z,100427.73
2019-02-08T06:36:26.138Z,100430.28
2019-02-08T06:38:53.118Z,100429.02
2019-02-08T06:41:20.081Z,100436.41
2019-02-08T06:43:47.086Z,100426.25
2019-02-08T06:46:14.066Z,100421.75
2019-02-08T06:48:41.139Z,100435.34
2019-02-08T06:51:08.097Z,100429.58
2019-02-08T06:53:35.027Z,100434.82
2019-02-08T06:56:01.984Z,100436.60
2019-02-08T06:58:42.214Z,100436.12
2019-02-08T07:01:28.786Z,100440.05
2019-02-08T07:04:24.888Z,100435.78
2019-02-08T07:07:14.293Z,100436.67
2019-02-08T07:10:09.887Z,100438.05
2019-02-08T07:12:55.028Z,100434.16
2019-02-08T07:15:59.776Z,100438.42
2019-02-08T07:18:49.371Z,100445.88
2019-02-08T07:21:33.140Z,100447.00
2019-02-08T07:24:14.804Z,100440.02
2019-02-08T07:26:59.749Z,100443.44
2019-02-08T07:29:39.113Z,100446.51
2019-02-08T07:32:27.113Z,100453.01
2019-02-08T07:35:19.468Z,100450.30
2019-02-08T07:38:13.586Z,100446.36
2019-02-08T07:41:01.471Z,100449.21
2019-02-08T07:43:46.629Z,100448.80
2019-02-08T07:46:22.069Z,100451.65
2019-02-08T07:49:18.426Z,100450.84
2019-02-08T07:52:10.947Z,100452.74
2019-02-08T07:54:48.721Z,100449.12
2019-02-08T07:57:50.986Z,100447.46
2019-02-08T08:00:41.406Z,100446.86
2019-02-08T08:03:28.035Z,100451.56
2019-02-08T08:06:30.203Z,100443.23
2019-02-08T08:09:18.775Z,100449.64
2019-02-08T08:12:14.943Z,100453.05
2019-02-08T08:14:53.936Z,100447.13
2019-02-08T08:17:40.918Z,100453.46
2019-02-08T08:20:26.990Z,100444.41
2019-02-08T08:23:12.920Z,100443.33
2019-02-08T08:26:09.747Z,100444.54
2019-02-08T08:28:56.353Z,100442.47
2019-02-08T08:31:32.160Z,100443.81
2019-02-08T08:34:04.897Z,100442.23
2019-02-08T08:37:19.368Z,100439.23
2019-02-08T08:40:26.876Z,100428.23
2019-02-08T08:43:15.296Z,100435.09
2019-02-08T08:46:09.333Z,100434.16
2019-02-08T08:49:29.285Z,100430.14
2019-02-08T08:52:36.924Z,100430.64
2019-02-08T08:55:42.073Z,100429.84
2019-02-08T08:58:37.744Z,100426.78
2019-02-08T09:01:27.786Z,100426.68
2019-02-08T09:04:51.947Z,100428.33
2019-02-08T09:07:56.625Z,100428.72
2019-02-08T09:10:47.349Z,100423.02
2019-02-08T09:13:24.407Z,100422.44
2019-02-08T09:16:38.298Z,100418.09
2019-02-08T09:19:43.306Z,100423.73
2019-02-08T09:22:51.197Z,100419.28
2019-02-08T09:25:50.135Z,100417.63
2019-02-08T09:28:28.200Z,100421.38
2019-02-08T09:31:45.840Z,100422.69
2019-02-08T09:34:44.928Z,100418.27
2019-02-08T09:37:55.010Z,100417.25
2019-02-08T09:41:06.168Z,100420.63
2019-02-08T09:44:17.931Z,100416.21
2019-02-08T09:47:21.411Z,100416.09
2019-02-08T09:50:24.472Z,100422.22
2019-02-08T09:53:49.664Z,100410.77
2019-02-08T09:57:13.460Z,100404.64
2019-02-08T10:00:43.471Z,100405.03
2019-02-08T10:03:45.400Z,100399.05
2019-02-08T10:06:55.888Z,100407.84
2019-02-08T10:10:06.401Z,100400.68
2019-02-08T10:13:21.213Z,100404.48
2019-02-08T10:16:14.352Z,100402.69
2019-02-08T10:19:18.242Z,100403.47
2019-02-08T10:22:31.458Z,100399.56
2019-02-08T10:25:50.996Z,100395.70
2019-02-08T10:29:00.163Z,100397.86
2019-02-08T10:32:03.572Z,100396.29
2019-02-08T10:35:27.060Z,100397.58
2019-02-08T10:38:30.061Z,100386.11
2019-02-08T10:41:37.642Z,100387.61
2019-02-08T10:44:35.174Z,100383.89
2019-02-08T10:47:39.681Z,100377.30
2019-02-08T10:50:43.844Z,100378.81
2019-02-08T10:53:53.411Z,100386.03
2019-02-08T10:56:57.462Z,100384.73
2019-02-08T11:00:11.884Z,100387.13
2019-02-08T11:03:15.903Z,100381.67
2019-02-08T11:06:16.279Z,100374.91
2019-02-08T11:09:19.507Z,100376.20
2019-02-08T11:12:36.084Z,100366.09
2019-02-08T11:15:59.071Z,100360.88
2019-02-08T11:19:02.447Z,100356.50
2019-02-08T11:21:29.721Z,100357.83
2019-02-08T11:23:57.666Z,100346.99
2019-02-08T11:26:24.820Z,100340.70
2019-02-08T11:29:05.206Z,100344.53
2019-02-08T11:31:32.158Z,100337.61
2019-02-08T11:33:59.166Z,100331.41
2019-02-08T11:36:27.907Z,100329.23
2019-02-08T11:38:55.358Z,100327.81
2019-02-08T11:41:22.264Z,100321.21
2019-02-08T11:43:50.380Z,100313.62
2019-02-08T11:46:18.568Z,100313.89
2019-02-08T11:48:45.528Z,100305.47
2019-02-08T11:51:12.623Z,100303.22
2019-02-08T11:53:39.573Z,100295.34
2019-02-08T11:56:07.019Z,100292.70
2019-02-08T11:58:33.982Z,100296.98
2019-02-08T12:01:01.070Z,100299.40
2019-02-08T12:03:28.044Z,100289.72
2019-02-08T12:05:55.142Z,100290.72
2019-02-08T12:08:22.443Z,100292.61
2019-02-08T12:10:49.395Z,100278.70
2019-02-08T12:13:16.381Z,100281.26
2019-02-08T12:15:43.365Z,100273.85
2019-02-08T12:18:10.376Z,100269.41
2019-02-08T12:20:37.794Z,100279.64
2019-02-08T12:23:04.790Z,100275.55
2019-02-08T12:25:31.925Z,100260.16
2019-02-08T12:27:58.881Z,100265.19
2019-02-08T12:30:28.948Z,100255.02
2019-02-08T12:32:55.896Z,100242.53
2019-02-08T12:35:23.232Z,100251.02
2019-02-08T12:37:50.307Z,100245.45
2019-02-08T12:40:17.553Z,100248.22
2019-02-08T12:42:44.884Z,100249.21
2019-02-08T12:45:12.529Z,100237.98
2019-02-08T12:47:39.500Z,100229.15
2019-02-08T12:50:06.973Z,100235.22
2019-02-08T12:52:33.966Z,100235.06
2019-02-08T12:55:00.901Z,100229.80
2019-02-08T12:57:27.899Z,100236.06
2019-02-08T12:59:55.432Z,100225.19
2019-02-08T13:02:23.243Z,100222.79
2019-02-08T13:04:50.228Z,100223.75
2019-02-08T13:07:18.439Z,100210.36
2019-02-08T13:09:45.792Z,100203.47
2019-02-08T13:12:14.456Z,100210.22
2019-02-08T13:14:41.503Z,100205.30
2019-02-08T13:17:08.500Z,100201.75
2019-02-08T13:19:36.324Z,100187.02
2019-02-08T13:22:04.142Z,100190.36
2019-02-08T13:24:31.446Z,100185.10
2019-02-08T13:26:58.432Z,100176.60
2019-02-08T13:29:25.396Z,100175.66
2019-02-08T13:31:52.557Z,100181.34
2019-02-08T13:34:19.523Z,100168.06
2019-02-08T13:36:47.852Z,100153.02
2019-02-08T13:39:14.812Z,100157.97
2019-02-08T13:41:42.182Z,100148.08
2019-02-08T13:44:09.176Z,100142.27
2019-02-08T13:46:36.174Z,100144.77
2019-02-08T13:49:03.765Z,100136.31
2019-02-08T13:51:31.047Z,100140.78
2019-02-08T13:53:58.582Z,100139.25
2019-02-08T13:56:25.566Z,100139.83
2019-02-08T13:58:52.520Z,100061.67
2019-02-08T14:01:20.330Z,100137.70
2019-02-08T14:03:47.362Z,100139.25
2019-02-08T14:06:14.306Z,100129.84
2019-02-08T14:08:41.321Z,100139.83
2019-02-08T14:11:08.329Z,100128.05
2019-02-08T14:13:40.459Z,100118.13
2019-02-08T14:16:04.441Z,100122.84
2019-02-08T14:18:31.433Z,100120.78
2019-02-08T14:20:58.447Z,100115.36
2019-02-08T14:23:26.173Z,100108.44
2019-02-08T14:25:53.109Z,100114.53
2019-02-08T14:28:20.107Z,100111.89
2019-02-08T14:30:47.069Z,100101.66
2019-02-08T14:33:14.025Z,100101.69
2019-02-08T14:35:40.994Z,100095.22
2019-02-08T14:38:11.809Z,100096.73
2019-02-08T14:40:38.807Z,100090.75
2019-02-08T14:43:05.828Z,100074.69
2019-02-08T14:45:32.809Z,100075.02
2019-02-08T14:47:59.820Z,100074.14
2019-02-08T14:50:26.980Z,100068.19
2019-02-08T14:52:54.264Z,100069.27
2019-02-08T14:55:21.383Z,100073.84
2019-02-08T14:57:49.622Z,100068.75
2019-02-08T15:00:18.330Z,100064.25
2019-02-08T15:02:45.260Z,100063.17
2019-02-08T15:05:13.122Z,100058.95
2019-02-08T15:07:40.121Z,100052.53
2019-02-08T15:10:19.524Z,100051.73
2019-02-08T15:12:46.516Z,100048.70
2019-02-08T15:15:13.744Z,100055.75
2019-02-08T15:17:40.774Z,100039.53
2019-02-08T15:20:12.323Z,100049.59
2019-02-08T15:22:39.260Z,100037.18
2019-02-08T15:25:06.475Z,100028.53
2019-02-08T15:27:33.435Z,100029.34
2019-02-08T15:30:00.413Z,100025.11
2019-02-08T15:32:27.363Z,100018.77
2019-02-08T15:34:54.389Z,100010.45
2019-02-08T15:37:21.402Z,100022.66
2019-02-08T15:39:48.395Z,100020.89
2019-02-08T15:42:15.352Z,100013.87
2019-02-08T15:44:42.364Z,100019.19
2019-02-08T15:47:09.367Z,100017.53
2019-02-08T15:49:36.499Z,100012.21
2019-02-08T15:52:03.578Z,100012.67
2019-02-08T15:54:30.555Z,100024.52
2019-02-08T15:56:57.524Z,100014.00
2019-02-08T15:59:24.516Z,100010.83
2019-02-08T16:01:51.464Z,100010.80
2019-02-08T16:04:18.476Z,100008.64
2019-02-08T16:06:45.794Z,100015.30
2019-02-08T16:09:13.099Z,100009.20
2019-02-08T16:11:40.250Z,100006.16
2019-02-08T16:14:07.292Z,100006.59
2019-02-08T16:16:34.249Z,100004.01
2019-02-08T16:19:01.231Z,100000.64
2019-02-08T16:21:28.271Z,99994.58
2019-02-08T16:23:55.376Z,99993.53
2019-02-08T16:26:23.786Z,99990.17
2019-02-08T16:28:50.829Z,99995.06
2019-02-08T16:31:18.720Z,99985.83
2019-02-08T16:33:45.689Z,99985.08
2019-02-08T16:36:14.651Z,99984.04
2019-02-08T16:38:41.718Z,99979.77
2019-02-08T16:41:09.202Z,99967.56
2019-02-08T16:43:36.150Z,99963.06
2019-02-08T16:46:03.482Z,99956.83
2019-02-08T16:48:30.429Z,99963.55
2019-02-08T16:50:57.521Z,99958.14
2019-02-08T16:53:24.562Z,99955.69
2019-02-08T16:55:51.682Z,99951.12
2019-02-08T16:58:18.665Z,99960.94
2019-02-08T17:00:45.743Z,99947.30
2019-02-08T17:03:12.952Z,99947.20
2019-02-08T17:05:40.132Z,99940.69
2019-02-08T17:08:07.218Z,99938.56
2019-02-08T17:10:34.187Z,99935.66
2019-02-08T17:13:01.198Z,99926.23
2019-02-08T17:15:29.104Z,99928.64
2019-02-08T17:17:56.481Z,99928.94
2019-02-08T17:20:29.058Z,99921.89
2019-02-08T17:22:56.096Z,99923.00
2019-02-08T17:25:23.286Z,99923.52
2019-02-08T17:27:55.236Z,99911.97
2019-02-08T17:30:19.543Z,99912.56
2019-02-08T17:32:46.513Z,99913.09
2019-02-08T17:35:15.836Z,99902.19
2019-02-08T17:37:43.044Z,99897.33
2019-02-08T17:42:50.378Z,99883.47
2019-02-08T17:45:18.395Z,99883.11
2019-02-08T17:47:45.769Z,99868.47
2019-02-08T17:50:15.178Z,99860.28
2019-02-08T17:52:42.171Z,99859.41
2019-02-08T17:55:10.360Z,99864.75
2019-02-08T17:57:37.307Z,99856.44
2019-02-08T18:00:07.486Z,99849.17
2019-02-08T18:02:34.465Z,99834.49
2019-02-08T18:05:01.420Z,99846.75
2019-02-08T18:07:28.432Z,99848.97
2019-02-08T18:09:55.504Z,99854.32
2019-02-08T18:12:22.506Z,99845.19
2019-02-08T18:14:49.455Z,99846.39
2019-02-08T18:17:16.556Z,99835.95
2019-02-08T18:19:43.531Z,99840.26
2019-02-08T18:35:38.051Z,99817.59
2019-02-08T18:38:06.509Z,99819.55
2019-02-08T18:40:33.994Z,99818.15
2019-02-08T18:51:08.936Z,99800.38
2019-02-08T18:53:36.875Z,99800.70
2019-02-08T18:56:04.433Z,99800.17
2019-02-08T18:58:32.168Z,99808.11
2019-02-08T19:00:59.588Z,99805.00
2019-02-08T19:03:27.254Z,99795.34
2019-02-08T19:05:54.833Z,99790.77
2019-02-08T19:08:22.748Z,99782.30
2019-02-08T19:10:50.478Z,99764.49
2019-02-08T19:13:18.338Z,99762.70
2019-02-08T19:15:45.868Z,99758.14
2019-02-08T19:18:13.671Z,99768.48
2019-02-08T19:20:43.546Z,99755.64
2019-02-08T19:23:11.237Z,99748.98
2019-02-08T19:25:40.896Z,99759.45
2019-02-08T19:28:09.989Z,99747.50
2019-02-08T19:33:16.329Z,99734.45
2019-02-08T19:35:44.399Z,99735.80
2019-02-08T19:38:12.445Z,99748.52
2019-02-08T19:40:42.444Z,99730.61
2019-02-08T19:43:17.525Z,99731.06
2019-02-08T19:45:45.027Z,99724.97
2019-02-08T19:48:12.965Z,99720.00
2019-02-08T19:50:42.247Z,99698.16
2019-02-08T19:53:12.731Z,99715.97
2019-02-08T19:55:47.618Z,99722.95
2019-02-08T19:59:21.520Z,99710.01
2019-02-08T20:09:00.779Z,99688.89
2019-02-08T20:11:57.333Z,99676.30
2019-02-08T20:15:31.877Z,99670.64
2019-02-08T20:26:57.033Z,99639.44
2019-02-08T20:29:42.146Z,99643.34
2019-02-08T20:34:47.102Z,99607.31
2019-02-08T20:47:55.875Z,99626.16
2019-02-08T20:50:24.337Z,99625.23
2019-02-08T20:52:52.833Z,99615.03
2019-02-08T20:55:21.122Z,99619.05
2019-02-08T20:57:50.009Z,99615.21
2019-02-08T21:00:20.390Z,99598.59
2019-02-08T21:03:00.508Z,99614.53
2019-02-08T21:05:31.358Z,99595.34
2019-02-08T21:07:59.642Z,99606.08
2019-02-08T21:10:30.533Z,99601.48
2019-02-08T21:12:58.247Z,99612.07
2019-02-08T21:20:51.993Z,99568.73
2019-02-08T21:23:19.716Z,99571.31
2019-02-08T21:25:52.582Z,99559.61
2019-02-08T21:28:23.338Z,99556.03
2019-02-08T21:30:55.313Z,99574.61
2019-02-08T21:33:27.198Z,99559.27
2019-02-08T21:35:58.787Z,99554.61
2019-02-08T21:38:28.933Z,99562.33
2019-02-08T21:46:24.007Z,99537.50
2019-02-08T21:51:29.126Z,99534.66
2019-02-08T21:54:02.609Z,99536.93
2019-02-08T21:56:31.459Z,99541.18
2019-02-08T21:59:06.139Z,99512.98
2019-02-08T22:02:38.492Z,99515.59
2019-02-08T22:14:55.528Z,99506.58
2019-02-08T22:22:51.877Z,99488.69
2019-02-08T22:34:17.712Z,99482.44
2019-02-08T22:36:44.963Z,99492.08
2019-02-08T22:39:17.639Z,99475.84
2019-02-08T22:41:45.572Z,99479.41
2019-02-08T22:44:13.749Z,99472.16
2019-02-08T22:46:41.593Z,99474.61
2019-02-08T22:49:10.857Z,99472.05
2019-02-08T22:51:42.031Z,99469.12
2019-02-08T22:54:12.567Z,99461.00
2019-02-08T22:56:42.942Z,99463.11
2019-02-08T22:59:12.913Z,99463.25
2019-02-08T23:01:51.417Z,99460.18
2019-02-08T23:04:20.896Z,99456.47
2019-02-08T23:06:51.519Z,99453.73
2019-02-08T23:09:25.225Z,99447.47
2019-02-08T23:11:56.053Z,99448.78
2019-02-08T23:14:27.136Z,99438.68
2019-02-08T23:16:54.249Z,99453.32
2019-02-08T23:19:21.476Z,99435.78
2019-02-08T23:21:52.451Z,99430.09
2019-02-08T23:24:22.654Z,99431.86
2019-02-08T23:26:53.354Z,99424.45
2019-02-08T23:29:20.976Z,99430.89
2019-02-08T23:31:52.147Z,99416.28
2019-02-08T23:34:19.390Z,99423.44
2019-02-08T23:36:46.837Z,99426.77
2019-02-08T23:39:24.986Z,99413.14
2019-02-08T23:41:55.175Z,99408.38
2019-02-08T23:44:26.149Z,99408.47
2019-02-08T23:46:55.222Z,99404.42
2019-02-08T23:49:22.575Z,99408.67
2019-02-08T23:51:54.206Z,99399.13
